createdAt,value
2018-12-14T00:02:01.251Z,1.10
2018-12-14T00:04:29.443Z,1.10
2018-12-14T00:06:57.675Z,1.20
2018-12-14T00:09:25.917Z,1.10
2018-12-14T00:11:54.114Z,1.10
2018-12-14T00:14:22.407Z,1.10
2018-12-14T00:16:50.657Z,1.00
2018-12-14T00:19:18.941Z,1.00
2018-12-14T00:21:47.194Z,1.00
2018-12-14T00:24:15.431Z,1.00
2018-12-14T00:26:43.776Z,1.00
2018-12-14T00:29:11.962Z,1.00
2018-12-14T00:31:40.249Z,1.00
2018-12-14T00:34:08.465Z,1.00
2018-12-14T00:36:36.780Z,1.00
2018-12-14T00:39:06.874Z,1.10
2018-12-14T00:41:35.061Z,1.10
2018-12-14T00:44:03.322Z,1.10
2018-12-14T00:46:31.608Z,1.10
2018-12-14T00:48:59.912Z,1.00
2018-12-14T00:51:28.134Z,1.10
2018-12-14T00:53:56.310Z,1.10
2018-12-14T00:56:24.549Z,1.10
2018-12-14T00:58:52.775Z,1.10
2018-12-14T01:01:21.015Z,1.10
2018-12-14T01:03:49.239Z,1.20
2018-12-14T01:06:17.777Z,1.10
2018-12-14T01:08:46.002Z,1.10
2018-12-14T01:11:14.150Z,1.10
2018-12-14T01:13:42.396Z,1.10
2018-12-14T01:16:10.762Z,1.10
2018-12-14T01:18:39.033Z,1.10
2018-12-14T01:21:07.322Z,1.00
2018-12-14T01:23:36.575Z,1.00
2018-12-14T01:26:04.789Z,1.00
2018-12-14T01:28:32.898Z,1.00
2018-12-14T01:31:01.103Z,1.00
2018-12-14T01:33:29.287Z,1.00
2018-12-14T01:35:57.623Z,1.00
2018-12-14T01:38:25.863Z,1.00
2018-12-14T01:40:54.085Z,1.00
2018-12-14T01:43:22.360Z,1.00
2018-12-14T01:45:50.634Z,1.00
2018-12-14T01:48:18.842Z,1.00
2018-12-14T01:50:47.135Z,1.10
2018-12-14T01:53:15.393Z,1.10
2018-12-14T01:55:43.684Z,1.00
2018-12-14T01:58:11.992Z,1.00
2018-12-14T02:00:40.188Z,1.00
2018-12-14T02:03:08.410Z,1.00
2018-12-14T02:05:36.645Z,1.00
2018-12-14T02:08:04.850Z,1.00
2018-12-14T02:10:33.143Z,0.90
2018-12-14T02:13:01.311Z,0.90
2018-12-14T02:15:29.541Z,0.90
2018-12-14T02:17:57.796Z,0.90
2018-12-14T02:20:26.015Z,0.90
2018-12-14T02:22:54.230Z,0.90
2018-12-14T02:25:22.436Z,0.90
2018-12-14T02:27:50.720Z,0.90
2018-12-14T02:30:30.411Z,0.80
2018-12-14T02:32:58.744Z,0.80
2018-12-14T02:35:26.927Z,0.90
2018-12-14T02:37:55.356Z,0.90
2018-12-14T02:40:23.672Z,0.90
2018-12-14T02:42:51.883Z,0.90
2018-12-14T02:45:20.182Z,1.00
2018-12-14T02:47:48.388Z,1.00
2018-12-14T02:50:16.606Z,1.00
2018-12-14T02:52:44.853Z,0.90
2018-12-14T02:55:13.061Z,0.90
2018-12-14T02:57:41.321Z,1.00
2018-12-14T03:00:09.640Z,1.00
2018-12-14T03:02:37.925Z,1.00
2018-12-14T03:05:06.172Z,1.00
2018-12-14T03:07:34.394Z,0.90
2018-12-14T03:10:02.743Z,0.90
2018-12-14T03:12:31.028Z,0.90
2018-12-14T03:14:59.289Z,0.90
2018-12-14T03:17:27.953Z,0.90
2018-12-14T03:19:56.613Z,0.90
2018-12-14T03:22:25.360Z,0.90
2018-12-14T03:24:53.769Z,0.90
2018-12-14T03:27:22.064Z,0.90
2018-12-14T03:29:50.395Z,0.90
2018-12-14T03:32:18.782Z,0.90
2018-12-14T03:34:47.333Z,0.90
2018-12-14T03:37:15.556Z,0.90
2018-12-14T03:39:43.777Z,0.90
2018-12-14T03:42:12.107Z,0.90
2018-12-14T03:44:40.649Z,0.90
2018-12-14T03:47:09.024Z,0.90
2018-12-14T03:49:37.239Z,0.90
2018-12-14T03:52:05.718Z,0.90
2018-12-14T03:54:34.081Z,0.90
2018-12-14T03:57:02.424Z,0.90
2018-12-14T03:59:30.874Z,0.90
2018-12-14T04:01:59.165Z,0.90
2018-12-14T04:04:27.397Z,1.00
2018-12-14T04:06:55.783Z,0.90
2018-12-14T04:09:24.019Z,1.00
2018-12-14T04:11:52.228Z,0.90
2018-12-14T04:14:20.484Z,0.90
2018-12-14T04:16:48.756Z,0.90
2018-12-14T04:19:17.076Z,0.90
2018-12-14T04:21:45.303Z,0.90
2018-12-14T04:24:13.676Z,0.90
2018-12-14T04:26:42.031Z,0.90
2018-12-14T04:29:10.299Z,0.90
2018-12-14T04:31:38.737Z,1.00
2018-12-14T04:34:07.088Z,0.90
2018-12-14T04:36:35.591Z,0.90
2018-12-14T04:39:05.468Z,0.90
2018-12-14T04:41:33.627Z,0.90
2018-12-14T04:44:01.881Z,0.90
2018-12-14T04:46:30.136Z,0.90
2018-12-14T04:48:58.266Z,0.90
2018-12-14T04:51:26.522Z,0.90
2018-12-14T04:53:56.283Z,0.90
2018-12-14T04:56:24.584Z,0.90
2018-12-14T04:58:52.965Z,1.00
2018-12-14T05:01:21.392Z,1.00
2018-12-14T05:03:49.813Z,0.90
2018-12-14T05:06:18.103Z,0.90
2018-12-14T05:08:46.478Z,0.90
2018-12-14T05:11:15.077Z,0.90
2018-12-14T05:13:43.347Z,0.90
2018-12-14T05:16:11.667Z,0.90
2018-12-14T05:18:39.871Z,0.90
2018-12-14T05:21:08.342Z,0.90
2018-12-14T05:23:36.980Z,0.90
2018-12-14T05:26:05.292Z,1.00
2018-12-14T05:28:33.599Z,1.00
2018-12-14T05:31:02.040Z,0.90
2018-12-14T05:33:30.275Z,0.90
2018-12-14T05:35:58.490Z,0.90
2018-12-14T05:38:26.882Z,0.90
2018-12-14T05:40:55.195Z,0.90
2018-12-14T05:43:23.518Z,0.90
2018-12-14T05:45:51.768Z,0.90
2018-12-14T05:48:20.081Z,0.90
2018-12-14T05:50:48.723Z,0.80
2018-12-14T05:53:16.958Z,0.80
2018-12-14T05:55:45.257Z,0.80
2018-12-14T05:58:13.544Z,0.80
2018-12-14T06:00:41.843Z,0.90
2018-12-14T06:03:10.090Z,0.80
2018-12-14T06:05:38.344Z,0.80
2018-12-14T06:08:06.756Z,0.80
2018-12-14T06:10:35.246Z,0.80
2018-12-14T06:13:08.877Z,0.80
2018-12-14T06:15:33.830Z,0.80
2018-12-14T06:18:03.515Z,0.80
2018-12-14T06:20:31.876Z,0.80
2018-12-14T06:23:00.163Z,0.80
2018-12-14T06:25:28.397Z,0.80
2018-12-14T06:27:56.705Z,0.80
2018-12-14T06:30:24.923Z,0.80
2018-12-14T06:32:53.311Z,0.90
2018-12-14T06:35:21.538Z,0.90
2018-12-14T06:37:49.720Z,0.80
2018-12-14T06:40:18.028Z,0.80
2018-12-14T06:42:46.333Z,0.80
2018-12-14T06:45:15.142Z,0.80
2018-12-14T06:47:43.506Z,0.80
2018-12-14T06:50:11.820Z,0.90
2018-12-14T06:52:40.076Z,0.80
2018-12-14T06:55:08.359Z,0.80
2018-12-14T06:57:36.620Z,0.90
2018-12-14T07:00:06.916Z,0.90
2018-12-14T07:02:35.386Z,0.80
2018-12-14T07:05:03.756Z,0.80
2018-12-14T07:07:32.017Z,0.90
2018-12-14T07:10:00.237Z,0.90
2018-12-14T07:12:28.580Z,0.90
2018-12-14T07:14:56.894Z,0.90
2018-12-14T07:17:25.245Z,0.90
2018-12-14T07:19:53.571Z,0.90
2018-12-14T07:22:21.880Z,0.90
2018-12-14T07:24:50.435Z,1.00
2018-12-14T07:27:18.993Z,1.00
2018-12-14T07:29:47.197Z,1.00
2018-12-14T07:32:15.525Z,0.90
2018-12-14T07:34:43.731Z,0.90
2018-12-14T07:37:12.168Z,0.90
2018-12-14T07:39:40.465Z,0.90
2018-12-14T07:42:08.772Z,0.90
2018-12-14T07:44:37.320Z,0.90
2018-12-14T07:47:11.473Z,0.90
2018-12-14T07:49:36.263Z,0.90
2018-12-14T07:52:04.615Z,0.80
2018-12-14T07:54:32.974Z,0.90
2018-12-14T07:57:01.150Z,0.90
2018-12-14T07:59:29.361Z,0.90
2018-12-14T08:01:57.649Z,0.90
2018-12-14T08:04:26.033Z,1.00
2018-12-14T08:06:55.358Z,1.00
2018-12-14T08:09:25.071Z,0.90
2018-12-14T08:11:55.864Z,0.90
2018-12-14T08:14:25.009Z,0.90
2018-12-14T08:16:53.335Z,0.90
2018-12-14T08:19:21.700Z,1.00
2018-12-14T08:21:50.024Z,1.00
2018-12-14T08:24:18.380Z,1.00
2018-12-14T08:26:46.952Z,1.00
2018-12-14T08:29:17.132Z,1.10
2018-12-14T08:31:46.896Z,1.20
2018-12-14T08:34:15.149Z,1.10
2018-12-14T08:36:43.396Z,1.10
2018-12-14T08:39:11.673Z,1.10
2018-12-14T08:41:39.887Z,1.10
2018-12-14T08:44:08.209Z,1.10
2018-12-14T08:46:36.435Z,1.10
2018-12-14T08:49:04.741Z,1.10
2018-12-14T08:51:32.969Z,1.10
2018-12-14T08:54:01.182Z,1.10
2018-12-14T08:56:29.464Z,1.00
2018-12-14T08:58:57.766Z,1.00
2018-12-14T09:01:26.020Z,1.10
2018-12-14T09:03:54.305Z,1.10
2018-12-14T09:06:22.482Z,1.00
2018-12-14T09:08:50.700Z,1.00
2018-12-14T09:11:19.053Z,1.00
2018-12-14T09:13:47.991Z,1.10
2018-12-14T09:16:16.475Z,1.10
2018-12-14T09:18:44.752Z,1.10
2018-12-14T09:21:13.003Z,1.10
2018-12-14T09:23:41.282Z,1.00
2018-12-14T09:26:09.616Z,1.10
2018-12-14T09:29:09.367Z,1.10
2018-12-14T09:31:38.052Z,1.10
2018-12-14T09:34:06.257Z,1.10
2018-12-14T09:36:34.530Z,1.10
2018-12-14T09:39:04.344Z,1.10
2018-12-14T09:41:32.615Z,1.20
2018-12-14T09:44:00.829Z,1.10
2018-12-14T09:46:29.164Z,1.10
2018-12-14T09:48:57.475Z,1.10
2018-12-14T09:51:25.723Z,1.10
2018-12-14T09:53:54.029Z,1.10
2018-12-14T09:56:22.360Z,1.10
2018-12-14T09:58:50.582Z,1.10
2018-12-14T10:01:18.938Z,1.10
2018-12-14T10:03:47.630Z,1.20
2018-12-14T10:06:16.069Z,1.20
2018-12-14T10:08:44.446Z,1.20
2018-12-14T10:11:13.039Z,1.10
2018-12-14T10:13:41.617Z,1.20
2018-12-14T10:16:16.625Z,1.20
2018-12-14T10:18:45.339Z,1.20
2018-12-14T10:21:13.620Z,1.20
2018-12-14T10:23:42.064Z,1.30
2018-12-14T10:26:10.255Z,1.20
2018-12-14T10:28:38.519Z,1.20
2018-12-14T10:31:06.727Z,1.20
2018-12-14T10:33:35.351Z,1.20
2018-12-14T10:36:03.599Z,1.30
2018-12-14T10:38:31.898Z,1.30
2018-12-14T10:41:00.239Z,1.40
2018-12-14T10:43:28.520Z,1.30
2018-12-14T10:45:56.825Z,1.30
2018-12-14T10:48:25.085Z,1.20
2018-12-14T10:50:53.347Z,1.20
2018-12-14T10:53:21.644Z,1.20
2018-12-14T10:55:50.402Z,1.30
2018-12-14T10:58:18.666Z,1.30
2018-12-14T11:00:52.549Z,1.30
2018-12-14T11:03:20.834Z,1.40
2018-12-14T11:05:49.186Z,1.50
2018-12-14T11:08:17.356Z,1.50
2018-12-14T11:10:45.663Z,1.50
2018-12-14T11:13:14.081Z,1.50
2018-12-14T11:15:42.328Z,1.50
2018-12-14T11:18:10.609Z,1.50
2018-12-14T11:20:38.867Z,1.60
2018-12-14T11:23:07.332Z,1.50
2018-12-14T11:25:35.551Z,1.40
2018-12-14T11:28:04.045Z,1.30
2018-12-14T11:30:32.484Z,1.40
2018-12-14T11:33:00.744Z,1.50
2018-12-14T11:35:29.136Z,1.50
2018-12-14T11:37:57.329Z,1.60
2018-12-14T11:40:25.708Z,1.70
2018-12-14T11:43:57.419Z,1.70
2018-12-14T11:46:25.734Z,1.60
2018-12-14T11:48:54.106Z,1.50
2018-12-14T11:51:24.918Z,1.50
2018-12-14T11:53:53.233Z,1.50
2018-12-14T11:56:21.622Z,1.50
2018-12-14T11:58:50.016Z,1.50
2018-12-14T12:01:18.579Z,1.60
2018-12-14T12:03:47.089Z,1.60
2018-12-14T12:06:15.439Z,1.60
2018-12-14T12:08:43.793Z,1.60
2018-12-14T12:11:12.276Z,1.70
2018-12-14T12:13:40.689Z,1.80
2018-12-14T12:16:08.948Z,1.80
2018-12-14T12:18:37.211Z,1.80
2018-12-14T12:21:05.337Z,1.80
2018-12-14T12:23:33.586Z,1.70
2018-12-14T12:26:01.823Z,1.80
2018-12-14T12:28:29.975Z,1.90
2018-12-14T12:30:58.380Z,2.00
2018-12-14T12:33:26.551Z,1.90
2018-12-14T12:35:54.687Z,1.90
2018-12-14T12:38:22.950Z,2.00
2018-12-14T12:40:51.281Z,2.00
2018-12-14T12:43:19.597Z,1.80
2018-12-14T12:45:47.976Z,1.90
2018-12-14T12:48:16.345Z,1.80
2018-12-14T12:50:44.520Z,1.90
2018-12-14T12:53:14.707Z,1.90
2018-12-14T12:55:43.021Z,1.90
2018-12-14T12:58:11.235Z,1.80
2018-12-14T13:00:39.498Z,1.80
2018-12-14T13:03:07.754Z,1.90
2018-12-14T13:05:36.080Z,2.00
2018-12-14T13:08:04.438Z,2.00
2018-12-14T13:10:34.252Z,1.90
2018-12-14T13:13:02.398Z,1.90
2018-12-14T13:15:30.709Z,1.90
2018-12-14T13:17:59.293Z,1.80
2018-12-14T13:20:27.465Z,1.70
2018-12-14T13:22:55.903Z,1.70
2018-12-14T13:25:24.890Z,1.70
2018-12-14T13:27:53.413Z,1.60
2018-12-14T13:30:21.649Z,1.60
2018-12-14T13:32:49.945Z,1.60
2018-12-14T13:38:01.086Z,1.60
2018-12-14T13:40:29.434Z,1.60
2018-12-14T13:42:57.640Z,1.60
2018-12-14T13:45:25.971Z,1.60
2018-12-14T13:47:58.042Z,1.60
2018-12-14T13:50:26.666Z,1.60
2018-12-14T13:52:55.317Z,1.60
2018-12-14T13:55:23.651Z,1.70
2018-12-14T13:57:51.934Z,1.80
2018-12-14T14:00:20.183Z,1.80
2018-12-14T14:02:48.636Z,1.80
2018-12-14T14:05:16.907Z,1.70
2018-12-14T14:07:45.210Z,1.70
2018-12-14T14:10:14.391Z,1.70
2018-12-14T14:12:42.736Z,1.70
2018-12-14T14:15:11.243Z,1.60
2018-12-14T14:17:39.482Z,1.60
2018-12-14T14:20:14.907Z,1.60
2018-12-14T14:22:44.514Z,1.60
2018-12-14T14:25:17.455Z,1.60
2018-12-14T14:27:43.240Z,1.50
2018-12-14T14:30:14.624Z,1.50
2018-12-14T14:32:43.355Z,1.40
2018-12-14T14:35:11.842Z,1.50
2018-12-14T14:37:40.159Z,1.40
2018-12-14T14:40:08.500Z,1.40
2018-12-14T14:42:36.721Z,1.30
2018-12-14T14:45:05.683Z,1.30
2018-12-14T14:47:34.158Z,1.30
2018-12-14T14:50:02.451Z,1.40
2018-12-14T14:52:30.717Z,1.30
2018-12-14T14:54:59.146Z,1.30
2018-12-14T14:57:27.626Z,1.30
2018-12-14T14:59:55.871Z,1.20
2018-12-14T15:02:24.230Z,1.20
2018-12-14T15:04:52.491Z,1.20
2018-12-14T15:09:55.604Z,1.20
2018-12-14T15:12:23.939Z,1.20
2018-12-14T15:14:52.469Z,1.20
2018-12-14T15:17:20.756Z,1.20
2018-12-14T15:19:49.173Z,1.20
2018-12-14T15:22:17.483Z,1.10
2018-12-14T15:24:45.864Z,1.10
2018-12-14T15:27:14.406Z,1.10
2018-12-14T15:29:42.690Z,1.10
2018-12-14T15:32:11.120Z,1.00
2018-12-14T15:34:39.431Z,1.10
2018-12-14T15:37:07.717Z,1.10
2018-12-14T15:39:35.947Z,1.10
2018-12-14T15:42:04.274Z,1.10
2018-12-14T15:44:32.576Z,1.10
2018-12-14T15:47:00.811Z,1.10
2018-12-14T15:49:29.268Z,1.00
2018-12-14T15:51:57.510Z,1.10
2018-12-14T15:54:25.799Z,1.00
2018-12-14T15:56:54.094Z,1.10
2018-12-14T15:59:22.390Z,1.10
2018-12-14T16:01:50.768Z,1.10
2018-12-14T16:04:19.060Z,1.10
2018-12-14T16:06:47.244Z,1.10
2018-12-14T16:09:15.449Z,1.10
2018-12-14T16:11:43.924Z,1.10
2018-12-14T16:14:12.335Z,1.00
2018-12-14T16:16:40.652Z,1.00
2018-12-14T16:19:08.947Z,1.00
2018-12-14T16:21:37.317Z,1.10
2018-12-14T16:24:05.757Z,1.10
2018-12-14T16:26:33.995Z,1.10
2018-12-14T16:29:02.198Z,1.00
2018-12-14T16:31:30.473Z,1.10
2018-12-14T16:33:58.787Z,1.00
2018-12-14T16:36:27.089Z,1.00
2018-12-14T16:38:55.361Z,1.00
2018-12-14T16:41:23.791Z,1.00
2018-12-14T16:43:51.995Z,1.00
2018-12-14T16:46:20.263Z,1.00
2018-12-14T16:48:48.476Z,1.00
2018-12-14T16:51:16.708Z,1.00
2018-12-14T16:53:50.315Z,1.00
2018-12-14T16:56:18.616Z,1.00
2018-12-14T16:58:46.874Z,1.00
2018-12-14T17:01:15.193Z,1.20
2018-12-14T17:03:43.548Z,1.10
2018-12-14T17:06:11.883Z,1.10
2018-12-14T17:08:40.153Z,1.00
2018-12-14T17:11:08.480Z,1.00
2018-12-14T17:13:36.751Z,1.00
2018-12-14T17:16:05.054Z,1.00
2018-12-14T17:18:33.251Z,1.10
2018-12-14T17:21:05.087Z,1.00
2018-12-14T17:23:34.286Z,1.10
2018-12-14T17:26:04.901Z,1.00
2018-12-14T17:28:33.615Z,1.10
2018-12-14T17:31:03.109Z,1.00
2018-12-14T17:33:36.109Z,1.00
2018-12-14T17:36:01.663Z,1.00
2018-12-14T17:38:40.461Z,1.00
2018-12-14T17:41:08.756Z,1.00
2018-12-14T17:43:37.070Z,1.10
2018-12-14T17:46:05.253Z,1.00
2018-12-14T17:48:33.732Z,1.00
2018-12-14T17:51:02.214Z,0.90
2018-12-14T17:53:30.552Z,0.90
2018-12-14T17:55:58.766Z,0.90
2018-12-14T17:58:27.046Z,1.00
2018-12-14T18:00:58.366Z,1.00
2018-12-14T18:03:25.643Z,1.10
2018-12-14T18:05:54.021Z,1.00
2018-12-14T18:08:22.626Z,1.00
2018-12-14T18:10:50.908Z,1.00
2018-12-14T18:13:19.164Z,1.00
2018-12-14T18:15:47.580Z,1.00
2018-12-14T18:18:18.265Z,1.00
2018-12-14T18:20:47.048Z,1.00
2018-12-14T18:23:15.217Z,1.00
2018-12-14T18:25:44.460Z,0.90
2018-12-14T18:28:12.776Z,1.00
2018-12-14T18:30:41.039Z,1.00
2018-12-14T18:33:09.255Z,0.90
2018-12-14T18:35:37.491Z,0.80
2018-12-14T18:38:06.725Z,0.80
2018-12-14T18:40:35.116Z,0.80
2018-12-14T18:43:03.349Z,0.80
2018-12-14T18:45:31.616Z,0.90
2018-12-14T18:47:59.915Z,0.90
2018-12-14T18:50:28.204Z,0.90
2018-12-14T18:52:56.462Z,0.90
2018-12-14T18:55:24.729Z,0.90
2018-12-14T18:57:52.951Z,0.90
2018-12-14T19:00:21.226Z,0.90
2018-12-14T19:02:49.479Z,0.90
2018-12-14T19:05:17.780Z,0.90
2018-12-14T19:07:45.995Z,1.00
2018-12-14T19:10:14.245Z,0.90
2018-12-14T19:12:42.528Z,0.90
2018-12-14T19:15:10.800Z,0.90
2018-12-14T19:17:39.075Z,1.00
2018-12-14T19:20:07.366Z,0.90
2018-12-14T19:22:36.252Z,1.00
2018-12-14T19:25:05.356Z,1.00
2018-12-14T19:27:33.623Z,1.00
2018-12-14T19:30:02.028Z,1.00
2018-12-14T19:32:30.789Z,1.00
2018-12-14T19:34:59.141Z,1.10
2018-12-14T19:37:27.428Z,1.10
2018-12-14T19:39:55.646Z,1.10
2018-12-14T19:42:24.106Z,1.10
2018-12-14T19:44:52.472Z,1.00
2018-12-14T19:47:21.042Z,1.00
2018-12-14T19:49:49.463Z,1.00
2018-12-14T19:52:17.783Z,1.00
2018-12-14T19:54:46.063Z,1.10
2018-12-14T19:57:14.242Z,1.10
2018-12-14T19:59:42.620Z,1.10
2018-12-14T20:02:11.022Z,1.10
2018-12-14T20:04:39.327Z,1.10
2018-12-14T20:07:07.664Z,1.10
2018-12-14T20:09:35.867Z,1.10
2018-12-14T20:12:04.203Z,1.10
2018-12-14T20:14:32.500Z,1.00
2018-12-14T20:17:00.766Z,0.80
2018-12-14T20:19:29.212Z,0.80
2018-12-14T20:21:57.708Z,0.90
2018-12-14T20:24:26.228Z,0.80
2018-12-14T20:26:54.678Z,0.80
2018-12-14T20:29:22.975Z,0.80
2018-12-14T20:31:51.257Z,0.80
2018-12-14T20:34:19.469Z,0.80
2018-12-14T20:36:47.796Z,0.80
2018-12-14T20:39:16.154Z,0.80
2018-12-14T20:41:44.510Z,0.80
2018-12-14T20:44:12.747Z,0.80
2018-12-14T20:46:40.924Z,0.80
2018-12-14T20:49:09.237Z,0.70
2018-12-14T20:51:37.536Z,0.60
2018-12-14T20:54:05.826Z,0.60
2018-12-14T20:56:34.037Z,0.60
2018-12-14T20:59:02.324Z,0.60
2018-12-14T21:01:30.618Z,0.60
2018-12-14T21:03:58.848Z,0.60
2018-12-14T21:06:27.134Z,0.60
2018-12-14T21:08:55.335Z,0.70
2018-12-14T21:11:23.624Z,0.60
2018-12-14T21:13:51.851Z,0.60
2018-12-14T21:16:25.715Z,0.50
2018-12-14T21:18:50.489Z,0.50
2018-12-14T21:21:18.832Z,0.50
2018-12-14T21:23:47.097Z,0.50
2018-12-14T21:26:15.218Z,0.50
2018-12-14T21:28:43.475Z,0.50
2018-12-14T21:31:11.710Z,0.50
2018-12-14T21:33:39.964Z,0.50
2018-12-14T21:36:08.267Z,0.60
2018-12-14T21:38:36.537Z,0.50
2018-12-14T21:41:04.887Z,0.50
2018-12-14T21:43:33.088Z,0.50
2018-12-14T21:46:01.413Z,0.50
2018-12-14T21:48:29.685Z,0.60
2018-12-14T21:50:57.948Z,0.50
2018-12-14T21:53:26.228Z,0.60
2018-12-14T21:55:54.410Z,0.60
2018-12-14T21:58:22.716Z,0.60
2018-12-14T22:00:51.099Z,0.60
2018-12-14T22:03:19.372Z,0.60
2018-12-14T22:05:47.585Z,0.60
2018-12-14T22:08:15.807Z,0.60
2018-12-14T22:10:44.056Z,0.50
2018-12-14T22:13:12.377Z,0.50
2018-12-14T22:18:15.653Z,0.40
2018-12-14T22:20:43.972Z,0.40
2018-12-14T22:23:12.149Z,0.40
2018-12-14T22:25:40.496Z,0.40
2018-12-14T22:28:08.713Z,0.40
2018-12-14T22:30:36.973Z,0.50
2018-12-14T22:33:05.168Z,0.50
2018-12-14T22:35:33.452Z,0.50
2018-12-14T22:38:01.647Z,0.50
2018-12-14T22:40:30.036Z,0.60
2018-12-14T22:42:58.272Z,0.70
2018-12-14T22:45:26.543Z,0.70
2018-12-14T22:47:54.926Z,0.60
2018-12-14T22:50:23.193Z,0.50
2018-12-14T22:52:51.443Z,0.50
2018-12-14T22:55:19.626Z,0.50
2018-12-14T22:57:47.960Z,0.50
2018-12-14T23:00:19.818Z,0.50
2018-12-14T23:02:48.395Z,0.60
2018-12-14T23:05:16.765Z,0.50
2018-12-14T23:07:45.189Z,0.50
2018-12-14T23:10:13.434Z,0.50
2018-12-14T23:12:41.741Z,0.50
2018-12-14T23:15:09.957Z,0.50
2018-12-14T23:17:38.192Z,0.50
2018-12-14T23:20:06.665Z,0.50
2018-12-14T23:22:34.929Z,0.40
2018-12-14T23:25:03.195Z,0.50
2018-12-14T23:27:31.476Z,0.50
2018-12-14T23:29:59.774Z,0.50
2018-12-14T23:32:28.016Z,0.40
2018-12-14T23:34:56.266Z,0.40
2018-12-14T23:37:24.457Z,0.40
2018-12-14T23:39:52.732Z,0.40
2018-12-14T23:42:21.053Z,0.40
2018-12-14T23:44:49.344Z,0.40
2018-12-14T23:47:17.582Z,0.50
2018-12-14T23:49:45.875Z,0.50
2018-12-14T23:52:14.127Z,0.50
2018-12-14T23:54:42.493Z,0.50
2018-12-14T23:57:12.292Z,0.50
2018-12-14T23:59:40.803Z,0.50
